Time;durP1;ratioP1;P1;durP2;ratioP2;P2;SDS_P1;SDS_P2;PMS_P1;PMS_P2;Temp;Humidity;BMP_temperature;BMP_pressure;BME280_temperature;BME280_humidity;BME280_pressure;Samples;Min_cycle;Max_cycle;Signal;HPM_P1;HPM_P2
2023/10/12 00:02:21;;;;;;;1145.93;999.90;;;;;;;23.48;49.84;98621.94;5058435;27;103570;-61
2023/10/12 00:04:53;;;;;;;1079.10;999.90;;;;;;;23.80;49.10;98627.81;5059299;27;103186;-60
2023/10/12 00:07:33;;;;;;;1081.80;999.90;;;;;;;23.74;49.46;98615.94;5058324;27;102992;-60
2023/10/12 00:10:20;;;;;;;1081.60;999.90;;;;;;;23.21;50.06;98609.22;5059921;27;102930;-60
2023/10/12 00:12:53;;;;;;;1103.40;999.90;;;;;;;23.51;49.50;98604.53;5058627;27;103713;-60
2023/10/12 00:15:28;;;;;;;1114.25;999.90;;;;;;;23.60;49.57;98603.38;5062135;27;103527;-60
2023/10/12 00:18:03;;;;;;;1104.20;999.90;;;;;;;23.49;49.91;98612.00;5057062;27;102677;-61
2023/10/12 00:20:37;;;;;;;1098.05;999.90;;;;;;;23.59;49.65;98607.09;5057242;27;103608;-60
2023/10/12 00:23:14;;;;;;;1119.00;999.90;;;;;;;22.86;51.16;98610.09;5056741;27;104015;-60
2023/10/12 00:25:54;;;;;;;1127.22;999.90;;;;;;;23.27;50.49;98608.44;5042118;27;103866;-60
2023/10/12 00:28:26;;;;;;;1113.80;999.90;;;;;;;23.16;50.81;98606.25;5057563;27;102794;-59
2023/10/12 00:30:57;;;;;;;1108.50;999.90;;;;;;;23.54;49.99;98601.47;5039714;27;102781;-60
2023/10/12 00:33:26;;;;;;;1069.03;999.22;;;;;;;23.89;48.60;98599.66;5060806;27;104115;-60
2023/10/12 00:36:01;;;;;;;1095.15;999.90;;;;;;;23.92;48.38;98601.94;5059090;27;104739;-59
2023/10/12 00:38:30;;;;;;;1092.13;999.90;;;;;;;23.99;48.14;98594.72;5040965;27;103043;-60
2023/10/12 00:41:03;;;;;;;1087.03;999.90;;;;;;;23.88;48.27;98597.97;5041046;27;103167;-60
2023/10/12 00:43:36;;;;;;;1088.07;999.90;;;;;;;23.65;48.66;98590.13;5041906;27;104099;-60
2023/10/12 00:46:21;;;;;;;1102.25;999.90;;;;;;;23.57;49.44;98587.59;5037451;27;104127;-60
2023/10/12 00:48:57;;;;;;;1107.07;999.90;;;;;;;23.65;49.76;98579.34;5059544;27;102843;-59
2023/10/12 00:51:31;;;;;;;1113.15;999.90;;;;;;;23.36;50.29;98580.31;5060051;27;103747;-60
2023/10/12 00:54:04;;;;;;;1102.57;999.90;;;;;;;23.70;49.65;98586.84;5044073;27;104055;-61
2023/10/12 00:56:32;;;;;;;1140.70;999.90;;;;;;;22.38;52.84;98584.66;5042102;27;103286;-60
2023/10/12 00:59:02;;;;;;;1125.93;999.90;;;;;;;22.79;51.28;98582.28;5059105;27;103016;-60
2023/10/12 01:01:32;;;;;;;1117.90;999.90;;;;;;;23.21;50.53;98576.91;5058588;27;103502;-61
2023/10/12 01:04:02;;;;;;;1133.55;999.90;;;;;;;22.94;51.78;98574.94;5036492;27;104108;-60
2023/10/12 01:06:30;;;;;;;1146.75;999.90;;;;;;;21.97;54.86;98575.41;5058045;27;103241;-61
2023/10/12 01:08:59;;;;;;;1146.03;999.90;;;;;;;21.71;54.95;98575.81;5038636;27;104568;-60
2023/10/12 01:11:33;;;;;;;1168.35;999.90;;;;;;;21.55;55.65;98576.00;5040643;27;104181;-60
2023/10/12 01:14:09;;;;;;;1170.05;999.90;;;;;;;22.10;53.58;98571.03;5041067;27;104189;-60
2023/10/12 01:16:55;;;;;;;1154.53;999.90;;;;;;;22.50;52.49;98577.75;5058768;27;104037;-60
2023/10/12 01:19:30;;;;;;;1129.47;999.90;;;;;;;22.29;52.99;98580.38;5059921;27;102620;-61
2023/10/12 01:22:07;;;;;;;1133.47;999.90;;;;;;;22.88;51.71;98575.72;5038774;27;102973;-60
2023/10/12 01:24:43;;;;;;;1118.53;999.90;;;;;;;23.34;50.45;98571.63;5036602;27;104266;-60
2023/10/12 01:27:14;;;;;;;1118.93;999.90;;;;;;;23.50;50.00;98576.75;5056426;27;103291;-60
2023/10/12 01:29:43;;;;;;;1133.38;999.90;;;;;;;23.49;49.96;98575.09;5037716;27;103126;-59
2023/10/12 01:32:27;;;;;;;1137.78;999.90;;;;;;;23.55;49.85;98568.91;5040257;27;103736;-60
2023/10/12 01:35:04;;;;;;;1145.00;999.90;;;;;;;23.31;50.34;98572.00;5055946;27;104300;-60
2023/10/12 01:37:42;;;;;;;1134.55;999.90;;;;;;;22.51;52.34;98569.50;5054536;27;104007;-60
2023/10/12 01:40:12;;;;;;;1142.72;999.90;;;;;;;23.26;50.46;98566.38;5058981;27;102743;-60
2023/10/12 01:42:51;;;;;;;1143.57;999.90;;;;;;;22.82;51.58;98571.13;5040017;27;102700;-60
2023/10/12 01:45:31;;;;;;;1157.57;999.90;;;;;;;22.54;52.62;98569.09;5057265;27;103814;-60
2023/10/12 01:48:11;;;;;;;1165.10;999.90;;;;;;;21.94;53.99;98566.72;5058667;27;104549;-61
2023/10/12 01:50:40;;;;;;;1137.95;999.90;;;;;;;22.73;52.22;98565.03;5059392;27;102928;-60
2023/10/12 03:09:51;;;;;;;1122.13;999.90;;;;;;;21.77;68.96;98564.34;5084300;27;103031;-70
2023/10/12 03:12:23;;;;;;;1128.17;999.90;;;;;;;21.99;67.43;98574.19;5068533;27;104298;-71
2023/10/12 03:14:52;;;;;;;1128.93;999.90;;;;;;;21.86;68.19;98563.25;5082117;27;103402;-70
2023/10/12 03:17:20;;;;;;;1117.88;999.90;;;;;;;21.71;68.67;98562.38;5071314;27;102837;-71
2023/10/12 03:19:55;;;;;;;1132.05;999.90;;;;;;;21.93;67.60;98558.81;5070820;27;103187;-68
2023/10/12 03:22:31;;;;;;;1102.03;999.90;;;;;;;22.12;66.81;98566.31;5062766;27;104664;-68
2023/10/12 03:25:13;;;;;;;1109.18;999.90;;;;;;;22.04;67.05;98565.56;5085271;27;104140;-69
2023/10/12 03:27:49;;;;;;;1106.28;999.90;;;;;;;21.70;68.36;98558.03;5084342;27;103460;-69
2023/10/12 03:30:18;;;;;;;1109.53;999.90;;;;;;;21.94;66.76;98560.47;5068812;27;104085;-70
2023/10/12 03:32:49;;;;;;;1103.65;999.90;;;;;;;21.82;68.32;98556.56;5065977;27;104234;-71
2023/10/12 03:35:39;;;;;;;1100.38;999.90;;;;;;;21.83;68.05;98564.44;5081665;27;103298;-65
2023/10/12 03:38:14;;;;;;;1127.65;999.90;;;;;;;21.82;66.83;98561.94;5074859;27;102783;-67
2023/10/12 03:40:50;;;;;;;1126.43;999.90;;;;;;;22.05;66.49;98570.78;5087533;27;104103;-67
2023/10/12 03:43:26;;;;;;;1106.75;999.90;;;;;;;22.00;66.60;98564.28;5088936;27;103931;-68
2023/10/12 03:46:07;;;;;;;1112.80;999.90;;;;;;;21.84;66.75;98570.63;5087549;27;103176;-67
2023/10/12 03:49:03;;;;;;;1114.37;999.90;;;;;;;21.65;68.37;98560.44;5086647;27;102916;-67
2023/10/12 03:51:40;;;;;;;1131.00;999.90;;;;;;;21.79;66.59;98563.13;5086882;27;104033;-67
2023/10/12 03:54:18;;;;;;;1099.68;999.90;;;;;;;22.15;65.35;98557.03;5083636;27;103267;-67
2023/10/12 03:56:49;;;;;;;1096.82;999.90;;;;;;;22.43;64.84;98563.38;5085388;27;103187;-67
2023/10/12 03:59:26;;;;;;;1106.20;999.90;;;;;;;22.38;64.63;98561.28;5088566;27;103125;-67
2023/10/12 04:01:54;;;;;;;1111.43;999.90;;;;;;;22.36;65.24;98555.25;5069309;27;104135;-67
2023/10/12 04:04:29;;;;;;;1103.72;999.90;;;;;;;22.33;64.83;98561.00;5085399;27;103260;-67
2023/10/12 04:07:16;;;;;;;1101.82;999.90;;;;;;;21.95;66.28;98565.66;5070496;27;103188;-67
2023/10/12 04:09:51;;;;;;;1120.57;999.90;;;;;;;22.16;64.96;98562.22;5074253;27;103210;-67
2023/10/12 04:12:35;;;;;;;1095.18;999.90;;;;;;;22.31;64.51;98559.53;5074286;27;103326;-67
2023/10/12 04:15:26;;;;;;;1090.75;999.90;;;;;;;21.70;66.37;98553.47;5072826;27;103330;-67
2023/10/12 04:17:59;;;;;;;1103.93;999.90;;;;;;;22.20;65.17;98563.53;5072992;27;103197;-67
2023/10/12 04:20:29;;;;;;;1102.43;999.90;;;;;;;22.07;65.27;98565.19;5063258;27;102679;-67
2023/10/12 04:23:43;;;;;;;1107.78;999.90;;;;;;;21.46;66.97;98571.72;5072888;27;104216;-67
2023/10/12 04:26:37;;;;;;;1090.55;999.90;;;;;;;21.35;67.33;98573.84;5056451;27;104375;-65
2023/10/12 04:28:59;;;;;;;1101.00;999.90;;;;;;;21.27;68.62;98568.53;5077614;27;104362;-68
2023/10/12 04:31:34;;;;;;;1090.78;999.90;;;;;;;21.15;68.40;98577.19;5070308;27;103117;-68
2023/10/12 04:34:06;;;;;;;1103.50;999.90;;;;;;;20.22;72.39;98592.47;5067019;27;103681;-68
2023/10/12 04:36:44;;;;;;;1103.22;999.90;;;;;;;19.88;74.58;98592.75;5052131;27;104123;-68
2023/10/12 04:39:17;;;;;;;1108.15;999.90;;;;;;;20.60;71.35;98588.94;5052156;27;104298;-68
2023/10/12 04:42:00;;;;;;;1095.75;999.90;;;;;;;20.75;70.32;98584.50;5069466;27;102768;-68
2023/10/12 04:44:43;;;;;;;1106.00;999.90;;;;;;;21.06;69.50;98578.22;5068225;27;103759;-68
2023/10/12 04:47:15;;;;;;;1118.40;999.90;;;;;;;20.98;69.00;98586.34;5068746;27;103603;-69
2023/10/12 04:49:54;;;;;;;1098.97;999.90;;;;;;;21.03;68.22;98590.19;5049999;27;103534;-67
2023/10/12 04:52:32;;;;;;;1095.57;999.90;;;;;;;21.78;65.96;98582.16;5041906;27;103204;-68
2023/10/12 04:55:20;;;;;;;1099.35;999.90;;;;;;;21.51;65.80;98585.44;5068160;27;104074;-69
2023/10/12 04:58:09;;;;;;;1108.40;999.90;;;;;;;22.12;64.42;98581.63;5051250;27;104233;-68
2023/10/12 05:00:55;;;;;;;1109.80;999.90;;;;;;;22.07;63.55;98582.19;5059113;27;103323;-68
2023/10/12 05:03:25;;;;;;;1086.70;999.90;;;;;;;21.90;63.80;98586.06;5070819;27;102858;-67
2023/10/12 05:06:04;;;;;;;1113.77;999.90;;;;;;;22.17;63.43;98587.28;5070483;27;104501;-67
2023/10/12 05:08:33;;;;;;;1099.70;999.90;;;;;;;21.94;64.44;98582.00;5066543;27;103818;-68
2023/10/12 05:11:01;;;;;;;1094.27;999.90;;;;;;;22.27;63.48;98583.28;5048834;27;104182;-68
2023/10/12 05:13:31;;;;;;;1075.65;999.90;;;;;;;22.31;63.43;98584.59;5068118;27;102770;-68
2023/10/12 05:16:06;;;;;;;1093.25;999.90;;;;;;;22.22;62.79;98591.09;5065812;27;104074;-69
2023/10/12 05:18:37;;;;;;;1085.63;999.90;;;;;;;22.39;62.87;98583.63;5065419;27;103479;-68
2023/10/12 05:21:10;;;;;;;1098.13;999.90;;;;;;;22.42;62.99;98586.78;5062454;27;103344;-68
2023/10/12 05:23:39;;;;;;;1091.55;999.90;;;;;;;21.78;64.82;98595.59;5064211;27;103798;-67
2023/10/12 05:26:09;;;;;;;1082.43;999.90;;;;;;;21.52;65.69;98585.28;5065711;27;104209;-68
2023/10/12 05:28:47;;;;;;;1088.60;999.90;;;;;;;20.74;69.09;98598.13;5061002;27;103318;-68
2023/10/12 05:31:20;;;;;;;1072.85;999.90;;;;;;;20.73;69.80;98599.97;5071295;27;103249;-68
2023/10/12 05:36:33;;;;;;;1091.20;999.90;;;;;;;20.78;69.29;98607.47;5067574;27;103323;-67
2023/10/12 05:39:13;;;;;;;1096.82;999.90;;;;;;;20.51;69.92;98607.97;5070564;27;103937;-68
2023/10/12 05:41:42;;;;;;;1094.43;999.90;;;;;;;21.00;68.70;98595.06;5063345;27;103439;-61
2023/10/12 05:44:13;;;;;;;1107.00;999.90;;;;;;;21.11;67.85;98595.50;5067169;27;103376;-61
2023/10/12 05:46:50;;;;;;;1081.55;999.90;;;;;;;21.53;66.80;98599.53;5056504;27;103705;-61
2023/10/12 05:49:23;;;;;;;1121.05;999.90;;;;;;;22.14;64.99;98598.41;5064697;27;103857;-68
2023/10/12 05:51:54;;;;;;;1108.75;999.90;;;;;;;22.03;64.98;98594.34;5076762;27;103199;-68
2023/10/12 05:54:23;;;;;;;1088.10;999.90;;;;;;;21.31;66.59;98615.50;5052219;27;102834;-68
2023/10/12 05:56:52;;;;;;;1096.38;999.90;;;;;;;20.77;68.74;98613.88;5075824;27;103911;-62
2023/10/12 05:59:22;;;;;;;1097.10;999.90;;;;;;;21.13;67.36;98620.38;5070722;27;104167;-69
2023/10/12 06:01:51;;;;;;;1114.63;999.90;;;;;;;21.58;66.52;98613.28;5052934;27;104111;-67
2023/10/12 06:04:20;;;;;;;1115.07;999.90;;;;;;;21.75;65.44;98606.72;5061991;27;102976;-68
2023/10/12 06:06:51;;;;;;;1111.93;999.90;;;;;;;21.89;64.63;98600.56;5071966;27;103899;-68
2023/10/12 06:09:23;;;;;;;1099.97;999.90;;;;;;;21.72;64.90;98604.41;5077907;27;103970;-69
2023/10/12 06:11:53;;;;;;;1089.93;999.90;;;;;;;22.00;65.06;98594.72;5055990;27;104500;-68
2023/10/12 06:14:22;;;;;;;1092.93;999.90;;;;;;;21.90;65.06;98610.28;5072037;27;103230;-68
2023/10/12 06:16:55;;;;;;;1112.47;999.90;;;;;;;22.08;65.09;98612.59;5071325;27;104122;-68
2023/10/12 06:19:26;;;;;;;1115.65;999.90;;;;;;;21.79;66.02;98616.91;5071639;27;104158;-68
2023/10/12 06:21:58;;;;;;;1107.00;999.90;;;;;;;22.29;64.70;98618.91;5078124;27;103341;-68
2023/10/12 06:24:34;;;;;;;1095.80;999.90;;;;;;;22.82;63.66;98624.97;5074729;27;102702;-67
2023/10/12 06:27:22;;;;;;;1104.03;999.90;;;;;;;23.14;62.46;98611.00;5076197;27;102758;-68
2023/10/12 06:29:52;;;;;;;1070.55;999.90;;;;;;;23.19;61.29;98616.66;5051813;27;104323;-68
2023/10/12 06:32:31;;;;;;;1078.68;999.90;;;;;;;22.82;61.94;98616.91;5068283;27;103258;-68
2023/10/12 06:35:13;;;;;;;1073.22;999.90;;;;;;;23.20;61.79;98629.13;5058699;27;102809;-68
2023/10/12 06:38:00;;;;;;;1083.87;999.90;;;;;;;23.19;62.49;98632.81;5069648;27;104132;-68
2023/10/12 06:40:47;;;;;;;1035.13;973.90;;;;;;;23.90;59.91;98628.28;5065882;27;104857;-68
2023/10/12 06:46:15;;;;;;;1088.32;999.90;;;;;;;22.94;61.45;98634.22;5040268;27;103116;-69
2023/10/12 06:48:47;;;;;;;1047.22;984.35;;;;;;;24.10;58.84;98645.47;5067375;27;102845;-69
2023/10/12 06:51:15;;;;;;;1058.88;995.80;;;;;;;24.50;58.12;98647.38;5050156;27;104319;-69
2023/10/12 06:53:51;;;;;;;1028.65;966.78;;;;;;;24.13;58.28;98654.00;5069076;27;103242;-69
2023/10/12 06:56:26;;;;;;;1059.68;996.00;;;;;;;23.71;59.60;98653.25;5068706;27;102750;-69
2023/10/12 06:59:21;;;;;;;1056.63;993.28;;;;;;;24.25;58.75;98650.75;5069303;27;104181;-68
2023/10/12 07:01:53;;;;;;;1030.75;970.20;;;;;;;24.69;58.18;98654.72;5068060;27;103871;-69
2023/10/12 07:04:27;;;;;;;1076.25;999.90;;;;;;;24.66;58.59;98657.81;5066105;27;104588;-69
2023/10/12 07:07:00;;;;;;;1067.38;999.90;;;;;;;25.04;58.15;98663.59;5069285;27;102878;-70
2023/10/12 07:09:38;;;;;;;1044.47;983.47;;;;;;;24.37;59.38;98655.38;5051930;27;102968;-62
2023/10/12 07:12:09;;;;;;;1038.37;978.30;;;;;;;25.17;56.68;98669.06;5057914;27;104948;-62
2023/10/12 07:14:42;;;;;;;1073.70;999.90;;;;;;;25.19;57.09;98666.97;5067061;27;103209;-62
2023/10/12 07:17:11;;;;;;;1057.68;996.05;;;;;;;25.52;56.35;98672.47;5067842;27;102697;-62
2023/10/12 07:19:46;;;;;;;1037.43;977.90;;;;;;;25.93;55.94;98675.00;5068026;27;104325;-62
2023/10/12 07:22:18;;;;;;;1021.08;962.88;;;;;;;26.12;56.07;98679.53;5068968;27;104599;-62
2023/10/12 07:24:47;;;;;;;1028.97;970.78;;;;;;;26.35;56.05;98676.41;5067377;27;103283;-63
2023/10/12 07:27:18;;;;;;;1011.45;954.13;;;;;;;26.42;55.01;98674.50;5069831;27;102684;-69
2023/10/12 07:29:48;;;;;;;1001.70;945.27;;;;;;;26.20;55.39;98678.50;5069736;27;102986;-63
2023/10/12 07:32:30;;;;;;;1015.78;958.70;;;;;;;26.34;55.18;98682.88;5069558;27;104198;-62
2023/10/12 07:35:07;;;;;;;1013.90;957.03;;;;;;;26.51;54.94;98684.06;5051057;27;104250;-62
2023/10/12 07:37:41;;;;;;;1029.20;970.55;;;;;;;26.46;55.53;98686.59;5049596;27;103055;-62
2023/10/12 07:40:17;;;;;;;1008.47;951.93;;;;;;;26.52;54.29;98680.34;5066407;27;102990;-62
2023/10/12 07:42:47;;;;;;;1062.68;999.55;;;;;;;26.12;55.37;98663.31;5071158;27;103319;-63
2023/10/12 07:45:16;;;;;;;1008.43;952.67;;;;;;;26.39;54.29;98666.81;5069888;27;103251;-62
2023/10/12 07:47:46;;;;;;;1003.58;947.63;;;;;;;26.25;54.15;98671.44;5070237;27;102726;-62
2023/10/12 07:50:25;;;;;;;1012.83;954.30;;;;;;;26.11;54.21;98668.91;5069185;27;102848;-60
2023/10/12 07:53:07;;;;;;;1011.30;953.53;;;;;;;26.21;54.38;98685.59;5070413;27;103359;-61
2023/10/12 07:55:41;;;;;;;1004.03;947.72;;;;;;;26.33;53.88;98682.03;5066727;27;103266;-61
2023/10/12 07:58:12;;;;;;;994.97;939.47;;;;;;;26.65;53.20;98677.56;5068511;27;103014;-61
2023/10/12 08:00:51;;;;;;;1058.05;994.63;;;;;;;26.63;54.35;98676.97;5070668;27;104400;-61
2023/10/12 08:03:19;;;;;;;1052.93;989.95;;;;;;;26.74;54.60;98683.59;5068819;27;103895;-61
2023/10/12 08:06:06;;;;;;;1079.60;999.90;;;;;;;26.56;55.12;98676.13;5067862;27;103461;-62
2023/10/12 08:08:34;;;;;;;1142.03;999.90;;;;;;;26.68;55.85;98679.84;5070810;27;102990;-61
2023/10/12 08:11:28;;;;;;;1165.07;999.90;;;;;;;26.63;55.42;98674.25;5069033;27;102729;-61
2023/10/12 08:13:57;;;;;;;1144.38;999.90;;;;;;;26.76;55.63;98674.19;5069590;27;104428;-61
2023/10/12 08:16:28;;;;;;;1163.28;999.90;;;;;;;26.66;55.37;98665.69;5068088;27;103178;-61
2023/10/12 08:21:46;;;;;;;1130.95;999.90;;;;;;;26.80;56.34;98667.34;5070547;27;103833;-60
2023/10/12 08:24:23;;;;;;;1154.93;999.90;;;;;;;26.60;56.67;98663.84;5069945;27;103279;-61
2023/10/12 08:26:58;;;;;;;1136.97;999.90;;;;;;;26.57;56.75;98672.41;5051139;27;103185;-61
2023/10/12 08:32:27;;;;;;;1116.20;999.90;;;;;;;26.79;56.40;98672.97;5080921;27;103171;-61
2023/10/12 08:38:16;;;;;;;1132.53;999.90;;;;;;;26.50;57.14;98667.00;5081128;27;103256;-61
2023/10/12 08:43:45;;;;;;;1124.30;999.90;;;;;;;26.41;56.42;98681.00;5037310;27;104116;-61
2023/10/12 08:46:31;;;;;;;1111.43;999.90;;;;;;;26.90;56.53;98673.13;5077303;27;103820;-62
2023/10/12 08:49:06;;;;;;;1133.53;999.90;;;;;;;27.02;55.46;98673.28;5077756;27;104252;-61
2023/10/12 08:51:35;;;;;;;1114.30;999.90;;;;;;;27.02;55.72;98676.00;5070236;27;102752;-61
2023/10/12 08:54:08;;;;;;;1107.95;999.90;;;;;;;27.09;56.35;98670.56;5065610;27;102791;-62
2023/10/12 08:56:45;;;;;;;1109.95;999.90;;;;;;;26.87;55.33;98673.56;5079721;27;103297;-62
2023/10/12 08:59:15;;;;;;;1122.72;999.90;;;;;;;27.03;55.21;98666.81;5081805;27;103323;-62
2023/10/12 09:01:43;;;;;;;1127.82;999.90;;;;;;;27.10;54.32;98673.03;5072136;27;102722;-62
2023/10/12 09:04:13;;;;;;;1087.97;999.90;;;;;;;26.75;52.55;98672.53;5077644;27;104876;-62
2023/10/12 09:06:55;;;;;;;1127.28;999.90;;;;;;;27.17;52.96;98671.13;5083759;27;104038;-61
2023/10/12 09:12:13;;;;;;;1077.40;999.90;;;;;;;27.35;50.51;98678.50;5084932;27;103313;-61
2023/10/12 09:14:43;;;;;;;1132.25;999.90;;;;;;;27.32;52.07;98676.25;5074955;27;102685;-61
2023/10/12 09:17:27;;;;;;;1109.38;999.90;;;;;;;27.12;52.65;98675.53;5077704;27;103346;-61
2023/10/12 09:20:09;;;;;;;1070.10;999.90;;;;;;;27.04;50.53;98682.03;5055657;27;104246;-61
2023/10/12 09:22:38;;;;;;;1092.15;999.90;;;;;;;26.84;51.07;98673.16;5081905;27;102752;-62
2023/10/12 09:25:26;;;;;;;1124.82;999.90;;;;;;;27.17;50.42;98683.84;5083331;27;102653;-62
2023/10/12 09:27:56;;;;;;;1099.35;999.90;;;;;;;27.65;50.82;98682.28;5081562;27;103361;-62
2023/10/12 09:30:26;;;;;;;1039.03;980.33;;;;;;;27.04;50.01;98682.88;5082810;27;103305;-61
2023/10/12 09:33:07;;;;;;;1058.07;997.47;;;;;;;26.96;50.32;98690.41;5082168;27;102597;-61
2023/10/12 09:35:41;;;;;;;1090.15;999.90;;;;;;;26.57;50.97;98691.34;5057746;27;102860;-61
2023/10/12 09:38:12;;;;;;;1041.47;982.55;;;;;;;27.20;50.29;98686.13;5076056;27;103340;-61
2023/10/12 09:40:52;;;;;;;1103.55;999.90;;;;;;;27.43;51.29;98687.25;5077247;27;103491;-61
2023/10/12 09:43:25;;;;;;;1021.90;964.42;;;;;;;27.74;49.28;98683.69;5084868;27;102853;-61
2023/10/12 09:45:58;;;;;;;1040.43;980.70;;;;;;;27.43;50.19;98683.72;5080444;27;104166;-67
2023/10/12 09:48:29;;;;;;;988.55;936.28;;;;;;;27.75;49.06;98681.81;5084094;27;104062;-68
2023/10/12 09:50:58;;;;;;;1061.78;998.80;;;;;;;27.59;50.08;98680.50;5080619;27;103854;-61
2023/10/12 09:53:35;;;;;;;1025.07;967.67;;;;;;;27.07;50.18;98684.31;5084517;27;102826;-61
2023/10/12 09:56:16;;;;;;;989.47;936.37;;;;;;;27.88;48.94;98681.69;5081742;27;103837;-67
2023/10/12 09:58:51;;;;;;;992.67;939.27;;;;;;;27.58;49.44;98682.38;5070708;27;103316;-68
2023/10/12 10:01:36;;;;;;;960.37;911.03;;;;;;;27.80;48.34;98673.84;5079715;27;103217;-68
2023/10/12 10:07:15;;;;;;;1002.05;947.65;;;;;;;27.43;48.99;98681.00;5080152;27;103764;-68
2023/10/12 10:09:46;;;;;;;940.70;892.67;;;;;;;27.90;48.01;98672.28;5068253;27;104223;-68
2023/10/12 10:12:17;;;;;;;941.75;893.88;;;;;;;27.76;48.18;98673.47;5081814;27;103216;-68
2023/10/12 10:14:52;;;;;;;997.25;943.67;;;;;;;27.47;48.99;98679.53;5083580;27;102781;-68
2023/10/12 10:17:24;;;;;;;993.53;941.57;;;;;;;27.75;48.37;98681.81;5083946;27;103881;-67
2023/10/12 10:20:34;;;;;;;941.77;894.30;;;;;;;28.34;47.75;98692.19;5076108;27;104516;-64
2023/10/12 10:22:58;;;;;;;948.90;901.63;;;;;;;28.52;47.18;98684.88;5082232;27;103187;-61
2023/10/12 10:25:33;;;;;;;972.35;922.80;;;;;;;28.55;48.38;98689.03;5085048;27;103114;-67
2023/10/12 10:28:09;;;;;;;973.95;922.88;;;;;;;28.86;48.08;98686.19;5087987;27;104078;-66
2023/10/12 10:30:41;;;;;;;937.38;890.85;;;;;;;28.66;47.54;98686.41;5086089;27;103443;-68
2023/10/12 10:33:17;;;;;;;959.35;911.15;;;;;;;28.65;47.82;98686.66;5067000;27;103658;-67
2023/10/12 10:36:10;;;;;;;965.58;917.58;;;;;;;28.42;48.10;98681.84;5093855;27;102866;-68
2023/10/12 10:38:49;;;;;;;890.38;848.03;;;;;;;28.73;47.52;98681.75;5078347;27;103964;-62
2023/10/12 10:41:22;;;;;;;934.97;888.50;;;;;;;28.76;47.56;98680.47;5077258;27;103323;-61
2023/10/12 10:43:53;;;;;;;901.90;859.22;;;;;;;28.94;46.86;98683.16;5083393;27;103278;-61
2023/10/12 10:46:26;;;;;;;839.08;801.55;;;;;;;29.19;46.57;98686.56;5080067;27;102800;-62
2023/10/12 10:48:56;;;;;;;848.92;811.15;;;;;;;29.00;47.43;98682.25;5077228;27;102893;-61
2023/10/12 10:51:48;;;;;;;865.15;826.10;;;;;;;28.96;47.46;98681.06;5080299;27;103337;-61
2023/10/12 10:54:26;;;;;;;903.23;860.67;;;;;;;29.14;48.87;98682.88;5083404;27;103240;-68
2023/10/12 10:56:58;;;;;;;979.80;928.42;;;;;;;29.19;49.81;98680.34;5081706;27;103002;-67
2023/10/12 10:59:30;;;;;;;895.40;852.87;;;;;;;29.00;47.95;98687.69;5083905;27;103093;-68
2023/10/12 11:01:59;;;;;;;951.42;902.60;;;;;;;29.11;48.91;98678.75;5071360;27;103175;-61
2023/10/12 11:04:44;;;;;;;893.37;851.47;;;;;;;29.42;47.63;98675.00;5067612;27;103294;-66
2023/10/12 11:07:17;;;;;;;1027.75;969.92;;;;;;;29.51;50.20;98675.50;5081812;27;103109;-64
2023/10/12 11:10:05;;;;;;;1004.33;948.23;;;;;;;29.42;49.33;98685.06;5084509;27;102996;-61
2023/10/12 11:12:36;;;;;;;1007.75;950.15;;;;;;;29.36;50.53;98683.28;5072758;27;103286;-60
2023/10/12 11:15:11;;;;;;;980.15;926.47;;;;;;;29.20;50.91;98677.38;5080609;27;103199;-67
2023/10/12 11:17:56;;;;;;;1043.83;982.87;;;;;;;28.66;52.76;98674.75;5073935;27;102700;-68
2023/10/12 11:20:49;;;;;;;914.08;867.10;;;;;;;27.81;52.68;98673.63;5077055;27;102799;-67
2023/10/12 11:23:18;;;;;;;977.40;923.22;;;;;;;28.48;51.47;98671.97;5082581;27;103315;-62
2023/10/12 11:25:45;;;;;;;1014.03;955.85;;;;;;;27.45;55.59;98670.78;5065888;27;104202;-63
2023/10/12 11:28:19;;;;;;;1013.08;955.60;;;;;;;27.48;53.19;98675.78;5083386;27;102695;-61
2023/10/12 11:30:51;;;;;;;976.10;922.40;;;;;;;27.27;53.17;98684.19;5091310;27;103688;-61
2023/10/12 11:33:29;;;;;;;950.17;898.17;;;;;;;26.80;52.52;98677.34;5084491;27;103418;-68
2023/10/12 11:36:03;;;;;;;912.88;863.70;;;;;;;27.25;51.43;98691.72;5086736;27;103420;-66
2023/10/12 11:38:32;;;;;;;887.63;842.55;;;;;;;28.00;51.06;98694.34;5077550;27;102728;-62
2023/10/12 11:41:13;;;;;;;910.60;862.70;;;;;;;27.31;52.22;98686.25;5074684;27;103008;-68
2023/10/12 11:43:52;;;;;;;836.85;796.20;;;;;;;28.84;49.54;98693.75;5077354;27;104039;-61
2023/10/12 11:46:23;;;;;;;903.90;857.17;;;;;;;28.29;51.04;98694.75;5085818;27;103246;-68
2023/10/12 11:49:05;;;;;;;855.43;810.20;;;;;;;27.94;51.82;98692.50;5087865;27;102825;-66
2023/10/12 11:51:40;;;;;;;873.40;826.65;;;;;;;28.49;51.04;98690.75;5085697;27;103676;-67
2023/10/12 11:54:19;;;;;;;1020.95;958.13;;;;;;;28.05;52.91;98699.97;5080331;27;104127;-68
2023/10/12 11:56:50;;;;;;;1007.90;949.07;;;;;;;27.98;54.40;98682.06;5075865;27;103277;-68
2023/10/12 11:59:25;;;;;;;987.17;930.27;;;;;;;27.13;54.65;98693.47;5064352;27;102820;-65
2023/10/12 12:02:08;;;;;;;992.43;935.47;;;;;;;27.84;54.05;98692.19;5087564;27;102813;-61
2023/10/12 12:04:40;;;;;;;943.75;889.97;;;;;;;27.54;53.79;98677.59;5059892;27;104428;-65
2023/10/12 12:07:16;;;;;;;1008.20;948.83;;;;;;;26.89;54.76;98684.19;5089885;27;103544;-66
2023/10/12 12:09:48;;;;;;;970.88;915.35;;;;;;;26.81;54.76;98687.97;5081674;27;102773;-62
2023/10/12 12:12:19;;;;;;;945.95;892.75;;;;;;;27.59;53.32;98688.63;5082730;27;102679;-62
2023/10/12 12:14:47;;;;;;;858.03;813.03;;;;;;;28.62;51.19;98670.78;5084000;27;104049;-61
2023/10/12 12:17:16;;;;;;;939.83;886.25;;;;;;;29.03;51.02;98681.78;5084345;27;103643;-62
2023/10/12 12:19:44;;;;;;;1003.22;944.28;;;;;;;27.55;52.96;98688.22;5083628;27;103194;-61
2023/10/12 12:22:15;;;;;;;936.97;883.47;;;;;;;28.98;51.42;98692.53;5083823;27;102978;-62
2023/10/12 12:24:44;;;;;;;869.47;822.85;;;;;;;29.17;51.04;98688.72;5080430;27;104157;-68
2023/10/12 12:27:37;;;;;;;888.97;841.03;;;;;;;29.26;50.64;98684.66;5082911;27;103201;-68
2023/10/12 12:30:04;;;;;;;919.50;868.17;;;;;;;29.46;50.66;98686.25;5051121;27;102771;-69
2023/10/12 12:33:00;;;;;;;790.10;750.93;;;;;;;29.64;49.60;98691.63;5067613;27;102965;-68
2023/10/12 12:35:29;;;;;;;843.08;799.63;;;;;;;29.92;50.09;98678.22;5082988;27;104554;-68
2023/10/12 12:38:00;;;;;;;1000.38;943.90;;;;;;;28.60;53.76;98670.19;5070206;27;103804;-68
2023/10/12 12:40:31;;;;;;;935.50;884.57;;;;;;;29.43;51.12;98664.94;5082901;27;102892;-64
2023/10/12 12:43:01;;;;;;;1003.90;946.13;;;;;;;29.47;52.05;98655.25;5087354;27;103316;-68
2023/10/12 12:45:30;;;;;;;990.03;933.65;;;;;;;29.44;52.39;98653.84;5080439;27;103120;-68
2023/10/12 12:48:01;;;;;;;968.72;913.90;;;;;;;28.55;54.13;98651.81;5092781;27;103203;-67
2023/10/12 12:50:29;;;;;;;931.40;880.42;;;;;;;29.05;51.02;98651.66;5066654;27;103059;-68
2023/10/12 12:52:58;;;;;;;921.33;871.80;;;;;;;28.83;51.60;98658.66;5085162;27;103903;-68
2023/10/12 12:55:27;;;;;;;886.87;839.47;;;;;;;29.27;50.92;98661.84;5084264;27;103312;-68
2023/10/12 12:57:57;;;;;;;994.60;937.08;;;;;;;28.96;53.13;98670.19;5075023;27;103676;-68
2023/10/12 13:00:25;;;;;;;974.72;919.45;;;;;;;29.31;51.93;98676.63;5059276;27;103408;-68
2023/10/12 13:02:53;;;;;;;1024.27;964.17;;;;;;;29.11;52.85;98665.16;5068039;27;103053;-61
2023/10/12 13:05:30;;;;;;;984.40;927.88;;;;;;;28.24;55.23;98665.53;5061955;27;104163;-67